Time;durP1;ratioP1;P1;durP2;ratioP2;P2;SDS_P1;SDS_P2;PMS_P1;PMS_P2;Temp;Humidity;BMP_temperature;BMP_pressure;BME280_temperature;BME280_humidity;BME280_pressure;Samples;Min_cycle;Max_cycle;Signal;HPM_P1;HPM_P2
2021/09/24 00:02:02;;;;;;;;;19.75;17.00;;;;;18.00;60.64;101720.53;5079627;27;45298;-79
2021/09/24 00:04:28;;;;;;;;;22.75;20.00;;;;;17.97;60.53;101720.44;5059120;28;45496;-75
2021/09/24 00:06:54;;;;;;;;;21.50;19.75;;;;;18.00;60.51;101727.47;5059387;28;45330;-77
2021/09/24 00:09:19;;;;;;;;;21.75;19.00;;;;;18.06;60.91;101730.28;5058889;28;45976;-76
2021/09/24 00:11:45;;;;;;;;;21.25;20.25;;;;;18.10;61.11;101725.19;5058637;28;45406;-75
2021/09/24 00:14:11;;;;;;;;;15.00;14.25;;;;;18.10;60.74;101724.28;5058423;28;45228;-75
2021/09/24 00:16:37;;;;;;;;;15.25;15.25;;;;;18.08;60.61;101718.13;5058773;28;45326;-78
2021/09/24 00:19:03;;;;;;;;;23.00;21.25;;;;;18.12;60.68;101722.59;5058229;28;45597;-78
2021/09/24 00:21:29;;;;;;;;;19.75;16.00;;;;;18.14;60.28;101720.91;5058241;28;45194;-76
2021/09/24 00:23:55;;;;;;;;;18.00;16.50;;;;;18.17;60.65;101722.72;5058393;28;45245;-75
2021/09/24 00:26:20;;;;;;;;;18.00;17.75;;;;;18.11;60.46;101707.72;5058593;28;45370;-75
2021/09/24 00:28:46;;;;;;;;;20.75;15.75;;;;;18.09;60.88;101707.69;5057788;28;45450;-75
2021/09/24 00:31:12;;;;;;;;;17.25;14.75;;;;;18.08;61.27;101707.66;5058204;28;45317;-74
2021/09/24 00:33:38;;;;;;;;;17.00;16.50;;;;;18.02;61.12;101700.50;5057897;28;45342;-74
2021/09/24 00:36:04;;;;;;;;;14.00;14.00;;;;;18.06;60.91;101707.59;5058481;28;45431;-74
2021/09/24 00:38:29;;;;;;;;;17.75;14.75;;;;;18.04;61.10;101705.78;5057665;28;45465;-75
2021/09/24 00:40:55;;;;;;;;;17.75;14.25;;;;;18.03;60.97;101699.63;5059978;28;45264;-73
2021/09/24 00:43:21;;;;;;;;;14.00;12.75;;;;;18.03;61.18;101696.13;5062344;28;45244;-73
2021/09/24 00:45:46;;;;;;;;;17.25;13.75;;;;;18.01;61.47;101692.56;5058325;28;46063;-73
2021/09/24 00:48:15;;;;;;;;;11.75;11.00;;;;;17.93;61.95;101687.06;5058222;28;45464;-73
2021/09/24 00:50:41;;;;;;;;;17.50;14.50;;;;;17.95;61.85;101681.06;5058039;28;45901;-76
2021/09/24 00:53:09;;;;;;;;;12.50;12.50;;;;;17.96;61.92;101676.69;5057977;28;45390;-76
2021/09/24 00:55:35;;;;;;;;;14.00;12.25;;;;;18.04;61.55;101676.94;5057876;28;45435;-73
2021/09/24 00:58:01;;;;;;;;;15.25;14.50;;;;;18.07;62.24;101684.91;5057658;28;45255;-76
2021/09/24 01:00:27;;;;;;;;;17.25;11.75;;;;;18.08;61.83;101677.06;5056481;28;45444;-75
2021/09/24 01:02:52;;;;;;;;;11.75;11.50;;;;;18.12;61.88;101680.66;5057981;28;45295;-74
2021/09/24 01:05:18;;;;;;;;;17.00;14.00;;;;;18.10;61.87;101675.38;5058025;28;45352;-74
2021/09/24 01:07:45;;;;;;;;;11.50;11.00;;;;;18.11;62.17;101671.03;5055992;28;47100;-74
2021/09/24 01:10:14;;;;;;;;;12.00;10.75;;;;;18.10;61.82;101667.53;5056869;28;45777;-75
2021/09/24 01:12:40;;;;;;;;;14.50;12.25;;;;;18.10;62.09;101666.63;5057215;28;45397;-74
2021/09/24 01:15:09;;;;;;;;;10.00;8.25;;;;;18.04;62.50;101649.00;5057903;28;45227;-77
2021/09/24 01:17:35;;;;;;;;;14.50;14.50;;;;;18.13;62.12;101665.84;5057189;28;45309;-77
2021/09/24 01:20:01;;;;;;;;;11.25;10.25;;;;;18.14;62.46;101660.63;5057232;28;45350;-76
2021/09/24 01:22:26;;;;;;;;;16.25;14.25;;;;;18.16;62.00;101658.03;5060704;28;45481;-75
2021/09/24 01:24:52;;;;;;;;;11.50;10.50;;;;;18.18;62.29;101656.34;5059501;28;45500;-78
2021/09/24 01:27:18;;;;;;;;;11.75;9.75;;;;;18.21;62.35;101657.31;5057731;28;46508;-76
2021/09/24 01:29:50;;;;;;;;;12.00;11.00;;;;;18.16;62.69;101651.06;5057164;28;45418;-75
2021/09/24 01:32:16;;;;;;;;;11.75;9.00;;;;;18.17;62.17;101652.84;5057435;28;45235;-78
2021/09/24 01:34:41;;;;;;;;;10.50;9.00;;;;;18.14;62.86;101646.66;5057375;28;45394;-78
2021/09/24 01:37:07;;;;;;;;;9.50;8.50;;;;;18.18;62.48;101651.09;5057231;28;45534;-77
2021/09/24 01:39:32;;;;;;;;;7.25;7.00;;;;;18.21;62.16;101669.56;5056423;28;45400;-78
2021/09/24 01:41:58;;;;;;;;;8.75;6.50;;;;;18.10;62.54;101656.13;5057238;28;45409;-81
2021/09/24 01:44:24;;;;;;;;;9.50;6.50;;;;;18.10;62.93;101651.81;5057741;28;45260;-79
2021/09/24 01:46:49;;;;;;;;;6.00;6.00;;;;;18.15;63.12;101658.88;5056795;28;45989;-80
2021/09/24 01:49:18;;;;;;;;;7.75;6.00;;;;;18.12;63.06;101653.56;5056799;28;45353;-81
2021/09/24 01:51:44;;;;;;;;;8.50;5.25;;;;;18.16;63.27;101652.78;5056372;28;45461;-80
2021/09/24 01:54:11;;;;;;;;;9.50;8.50;;;;;18.12;63.55;101649.22;5057278;28;45244;-79
2021/09/24 01:56:37;;;;;;;;;5.00;4.50;;;;;18.14;63.50;101649.28;5055448;28;46699;-81
2021/09/24 01:59:04;;;;;;;;;7.00;7.00;;;;;18.17;63.40;101651.94;5056585;28;45291;-78
2021/09/24 02:01:30;;;;;;;;;8.25;6.75;;;;;18.18;62.93;101653.72;5057060;28;45482;-78
2021/09/24 02:03:56;;;;;;;;;8.00;7.00;;;;;18.14;63.35;101646.66;5062490;28;45334;-77
2021/09/24 02:06:21;;;;;;;;;8.00;6.00;;;;;18.14;63.29;101652.75;5064555;28;45838;-79
2021/09/24 02:08:47;;;;;;;;;7.75;5.25;;;;;18.18;62.98;101659.88;5059516;28;45399;-77
2021/09/24 02:11:13;;;;;;;;;7.00;7.00;;;;;18.19;63.60;101659.03;5058055;28;45443;-76
2021/09/24 02:13:39;;;;;;;;;8.00;5.50;;;;;18.16;63.30;101651.06;5056928;28;45469;-77
2021/09/24 02:16:06;;;;;;;;;7.00;7.00;;;;;18.22;63.30;101663.47;5056667;28;46460;-78
2021/09/24 02:18:31;;;;;;;;;10.00;10.00;;;;;18.21;62.96;101665.19;5056423;28;45528;-77
2021/09/24 02:20:57;;;;;;;;;7.75;7.25;;;;;18.21;62.90;101662.56;5055569;28;45356;-75
2021/09/24 02:23:23;;;;;;;;;10.00;6.75;;;;;18.18;63.37;101657.25;5057154;28;45490;-75
2021/09/24 02:25:48;;;;;;;;;7.50;6.00;;;;;18.22;63.42;101656.47;5056151;28;45555;-74
2021/09/24 02:28:14;;;;;;;;;6.50;6.50;;;;;18.26;63.47;101654.81;5056181;28;45454;-77
2021/09/24 02:30:40;;;;;;;;;9.25;8.25;;;;;18.30;63.87;101650.56;5056239;28;45441;-78
2021/09/24 02:33:07;;;;;;;;;6.50;6.25;;;;;18.28;63.31;101647.88;5056796;28;45644;-77
2021/09/24 02:35:33;;;;;;;;;11.00;7.00;;;;;18.27;63.66;101638.25;5056137;28;46292;-78
2021/09/24 02:37:59;;;;;;;;;9.75;8.75;;;;;18.32;63.41;101640.97;5054865;28;45276;-76
2021/09/24 02:40:25;;;;;;;;;7.00;7.00;;;;;18.24;63.71;101638.19;5056704;28;45418;-77
2021/09/24 02:42:51;;;;;;;;;10.50;7.50;;;;;18.28;63.62;101644.38;5058078;28;45347;-74
2021/09/24 02:45:17;;;;;;;;;7.75;6.25;;;;;18.29;63.67;101644.41;5063789;28;46408;-75
2021/09/24 02:47:42;;;;;;;;;7.75;5.75;;;;;18.33;63.92;101646.28;5057940;28;45292;-76
2021/09/24 02:50:09;;;;;;;;;9.00;6.50;;;;;18.34;64.10;101644.53;5057910;28;45338;-76
2021/09/24 02:52:35;;;;;;;;;7.25;7.25;;;;;18.33;63.51;101648.00;5056251;28;45373;-74
2021/09/24 02:55:01;;;;;;;;;9.75;9.50;;;;;18.30;63.75;101640.97;5055783;28;46353;-74
2021/09/24 02:57:26;;;;;;;;;8.50;6.75;;;;;18.31;64.11;101639.22;5056442;28;45425;-75
2021/09/24 02:59:52;;;;;;;;;13.50;8.75;;;;;18.30;63.84;101647.94;5056311;28;45304;-76
2021/09/24 03:02:18;;;;;;;;;7.00;6.25;;;;;18.29;64.33;101640.94;5056317;28;45303;-74
2021/09/24 03:04:44;;;;;;;;;7.50;6.50;;;;;18.29;63.75;101633.94;5055529;28;45518;-75
2021/09/24 03:07:10;;;;;;;;;9.25;8.50;;;;;18.32;64.26;101640.97;5056009;28;45349;-75
2021/09/24 03:09:35;;;;;;;;;9.50;9.00;;;;;18.30;64.22;101642.72;5055116;28;45339;-76
2021/09/24 03:12:03;;;;;;;;;9.50;9.00;;;;;18.33;64.07;101640.13;5056271;28;45413;-76
2021/09/24 03:14:29;;;;;;;;;10.00;7.75;;;;;18.35;64.28;101638.44;5055342;28;45432;-77
2021/09/24 03:16:54;;;;;;;;;6.75;6.75;;;;;18.31;64.20;101629.63;5055544;28;45446;-74
2021/09/24 03:19:20;;;;;;;;;12.25;9.25;;;;;18.25;63.97;101619.88;5055887;28;45318;-74
2021/09/24 03:21:47;;;;;;;;;9.00;7.00;;;;;18.30;64.27;101637.47;5055654;28;45239;-74
2021/09/24 03:24:13;;;;;;;;;12.25;8.00;;;;;18.23;64.59;101629.41;5056140;28;45317;-74
2021/09/24 03:26:38;;;;;;;;;10.50;7.50;;;;;18.24;64.34;101630.31;5056024;28;45334;-74
2021/09/24 03:29:04;;;;;;;;;10.00;6.00;;;;;18.20;64.93;101620.59;5055855;28;45366;-74
2021/09/24 03:31:29;;;;;;;;;8.00;8.00;;;;;18.20;64.64;101620.59;5057309;28;45577;-75
2021/09/24 03:33:55;;;;;;;;;11.25;10.00;;;;;18.17;65.08;101623.13;5058487;28;46811;-75
2021/09/24 03:36:21;;;;;;;;;8.25;7.25;;;;;18.17;64.97;101616.16;5058470;28;45332;-77
2021/09/24 03:38:46;;;;;;;;;10.00;10.00;;;;;18.16;65.34;101613.47;5059080;28;45457;-80
2021/09/24 03:41:12;;;;;;;;;9.50;8.75;;;;;18.16;65.12;101614.38;5059368;28;45437;-76
2021/09/24 03:43:38;;;;;;;;;8.25;5.75;;;;;18.09;64.98;101617.66;5058802;28;45859;-80
2021/09/24 03:46:04;;;;;;;;;13.25;7.50;;;;;18.02;65.09;101603.53;5058513;28;45402;-80
2021/09/24 03:48:29;;;;;;;;;8.75;7.50;;;;;18.06;65.14;101618.47;5058819;28;45475;-81
2021/09/24 03:50:55;;;;;;;;;9.25;9.25;;;;;18.09;64.96;101615.97;5059574;28;45284;-81
2021/09/24 03:53:21;;;;;;;;;7.00;5.25;;;;;18.14;65.20;101615.19;5058758;28;45421;-82
2021/09/24 03:55:48;;;;;;;;;8.25;5.50;;;;;18.16;65.02;101611.78;5058253;28;45863;-80
2021/09/24 03:58:14;;;;;;;;;6.00;5.75;;;;;18.22;64.75;101613.66;5058942;28;45462;-80
2021/09/24 04:00:40;;;;;;;;;8.75;8.00;;;;;18.26;65.09;101607.63;5058734;28;45260;-80
2021/09/24 04:03:05;;;;;;;;;7.25;6.00;;;;;18.28;64.83;101610.31;5057860;28;46772;-80
2021/09/24 04:05:31;;;;;;;;;8.25;7.50;;;;;18.20;64.83;101603.13;5061157;28;45308;-80
2021/09/24 04:07:56;;;;;;;;;7.00;5.75;;;;;18.25;64.97;101605.84;5061360;28;45443;-75
2021/09/24 04:10:22;;;;;;;;;6.75;6.75;;;;;18.27;65.12;101605.91;5060350;28;45339;-80
2021/09/24 04:12:47;;;;;;;;;5.75;5.75;;;;;18.22;65.51;101598.81;5058846;28;45924;-77
2021/09/24 04:15:13;;;;;;;;;5.75;5.75;;;;;18.25;64.70;101593.66;5058196;28;45256;-75
2021/09/24 04:17:39;;;;;;;;;3.75;3.50;;;;;18.28;64.84;101600.69;5058455;28;45291;-77
2021/09/24 04:20:05;;;;;;;;;6.25;4.75;;;;;18.33;65.09;101606.97;5058531;28;45395;-77
2021/09/24 04:22:30;;;;;;;;;7.00;6.00;;;;;18.32;64.79;101605.19;5058102;28;45417;-80
2021/09/24 04:24:56;;;;;;;;;4.00;4.00;;;;;18.31;64.93;101607.75;5058302;28;45409;-81
2021/09/24 04:27:22;;;;;;;;;5.00;3.50;;;;;18.33;64.66;101609.59;5059317;28;45765;-80
2021/09/24 04:29:48;;;;;;;;;5.00;4.00;;;;;18.31;65.09;101611.28;5058490;28;45189;-80
2021/09/24 04:32:13;;;;;;;;;5.00;3.50;;;;;18.32;64.82;101607.81;5058111;28;46064;-81
2021/09/24 04:34:39;;;;;;;;;5.50;5.00;;;;;18.38;65.01;101613.19;5057556;28;45216;-78
2021/09/24 04:37:05;;;;;;;;;5.75;3.00;;;;;18.40;64.64;101611.50;5058322;28;45315;-81
2021/09/24 04:39:31;;;;;;;;;3.25;3.25;;;;;18.38;64.55;101607.94;5058001;28;45398;-81
2021/09/24 04:41:56;;;;;;;;;3.00;2.25;;;;;18.43;65.00;101613.31;5058253;28;45429;-75
2021/09/24 04:44:22;;;;;;;;;3.75;3.75;;;;;18.42;64.42;101611.53;5059872;28;45450;-79
2021/09/24 04:46:48;;;;;;;;;3.00;3.00;;;;;18.49;64.65;101617.81;5064171;28;45375;-79
2021/09/24 04:49:14;;;;;;;;;4.50;4.25;;;;;18.49;64.74;101616.09;5058041;28;45319;-81
2021/09/24 04:51:41;;;;;;;;;4.25;4.25;;;;;18.50;64.96;101612.63;5058477;28;46265;-82
2021/09/24 04:54:06;;;;;;;;;3.00;2.50;;;;;18.55;64.90;101620.63;5056856;28;45823;-77
2021/09/24 04:56:32;;;;;;;;;5.00;4.75;;;;;18.58;64.84;101618.03;5058169;28;45671;-82
2021/09/24 04:58:57;;;;;;;;;5.25;4.25;;;;;18.56;64.81;101606.66;5057970;28;45838;-80
2021/09/24 05:01:23;;;;;;;;;3.50;3.50;;;;;18.62;64.88;101608.53;5058066;28;45325;-81
2021/09/24 05:03:49;;;;;;;;;4.75;3.75;;;;;18.62;64.06;101603.28;5057722;28;45318;-74
2021/09/24 05:06:14;;;;;;;;;4.25;4.00;;;;;18.61;64.66;101601.53;5073285;28;45343;-75
2021/09/24 05:08:40;;;;;;;;;4.50;4.00;;;;;18.59;64.77;101603.22;5057947;28;45255;-75
2021/09/24 05:11:08;;;;;;;;;7.00;7.00;;;;;18.58;64.76;101611.94;5055882;27;47756;-74
2021/09/24 05:13:33;;;;;;;;;5.25;5.25;;;;;18.48;64.60;101602.94;5055935;28;45719;-75
2021/09/24 05:15:59;;;;;;;;;7.25;6.00;;;;;18.31;64.86;101571.06;5057414;28;45399;-77
2021/09/24 05:18:25;;;;;;;;;6.75;6.75;;;;;18.38;64.67;101586.97;5058174;28;45462;-75
2021/09/24 05:20:50;;;;;;;;;6.25;6.25;;;;;18.48;65.03;101608.19;5057404;28;45650;-76
2021/09/24 05:23:16;;;;;;;;;7.75;4.25;;;;;18.47;65.08;101609.03;5057123;28;45388;-77
2021/09/24 05:25:41;;;;;;;;;6.25;6.00;;;;;18.44;65.08;101604.59;5062437;28;45281;-79
2021/09/24 05:28:07;;;;;;;;;4.00;4.00;;;;;18.31;65.01;101577.19;5063577;28;45552;-74
2021/09/24 05:30:33;;;;;;;;;6.75;3.25;;;;;18.45;65.39;101603.75;5058752;28;45529;-75
2021/09/24 05:32:59;;;;;;;;;4.25;3.25;;;;;18.37;64.81;101589.56;5056991;28;45488;-74
2021/09/24 05:35:24;;;;;;;;;3.00;2.50;;;;;18.46;65.07;101609.91;5056880;28;45493;-75
2021/09/24 05:37:50;;;;;;;;;5.50;4.25;;;;;18.42;65.39;101606.28;5056504;28;45696;-77
2021/09/24 05:40:16;;;;;;;;;6.00;4.50;;;;;18.40;65.65;101600.16;5055585;28;45857;-76
2021/09/24 05:42:42;;;;;;;;;5.00;5.00;;;;;18.36;65.33;101587.78;5056335;28;45822;-76
2021/09/24 05:45:11;;;;;;;;;5.50;5.25;;;;;18.44;65.24;101598.47;5056329;28;45467;-76
2021/09/24 05:47:38;;;;;;;;;6.50;5.75;;;;;18.34;65.28;101585.16;5054247;28;45662;-76
2021/09/24 05:50:11;;;;;;;;;6.75;5.75;;;;;18.47;65.18;101602.06;5054668;28;46094;-77
2021/09/24 05:52:37;;;;;;;;;7.00;4.50;;;;;18.47;64.76;101599.44;5072761;28;45600;-75
2021/09/24 05:55:03;;;;;;;;;7.25;6.00;;;;;18.48;65.27;101592.44;5056004;28;45380;-75
2021/09/24 05:57:29;;;;;;;;;5.50;5.00;;;;;18.51;64.50;101596.06;5060840;28;45379;-79
2021/09/24 05:59:55;;;;;;;;;7.00;6.00;;;;;18.54;65.25;101605.72;5056261;28;45942;-78
2021/09/24 06:02:20;;;;;;;;;5.25;5.25;;;;;18.47;65.25;101580.19;5067281;27;45243;-80
2021/09/24 06:04:46;;;;;;;;;6.00;5.75;;;;;18.50;64.93;101590.75;5057019;28;45340;-76
2021/09/24 06:07:12;;;;;;;;;8.50;6.25;;;;;18.44;65.00;101580.13;5062549;28;45418;-81
2021/09/24 06:09:37;;;;;;;;;6.00;6.00;;;;;18.49;64.92;101596.84;5059241;28;45603;-78
2021/09/24 06:12:03;;;;;;;;;7.75;7.00;;;;;18.55;65.11;101611.00;5059039;28;45381;-79
2021/09/24 06:14:29;;;;;;;;;5.50;5.00;;;;;18.56;64.95;101617.16;5062056;28;45351;-78
2021/09/24 06:16:54;;;;;;;;;5.75;5.00;;;;;18.47;65.33;101596.81;5062708;28;45442;-77
2021/09/24 06:19:20;;;;;;;;;6.50;5.00;;;;;18.48;64.70;101597.69;5054726;28;45516;-83
2021/09/24 06:21:45;;;;;;;;;5.00;5.00;;;;;18.55;64.83;101618.88;5056812;28;45465;-78
2021/09/24 06:24:12;;;;;;;;;9.00;7.25;;;;;18.52;65.07;101610.03;5055536;28;45683;-77
2021/09/24 06:26:38;;;;;;;;;5.50;5.00;;;;;18.59;64.77;101613.72;5055262;28;45627;-78
2021/09/24 06:29:04;;;;;;;;;6.50;5.00;;;;;18.60;65.14;101605.00;5056082;28;46592;-78
2021/09/24 06:31:31;;;;;;;;;6.00;6.00;;;;;18.58;65.31;101597.06;5056231;28;45726;-78
2021/09/24 06:33:56;;;;;;;;;5.00;4.25;;;;;18.59;65.15;101598.84;5054168;28;45545;-77
2021/09/24 06:36:24;;;;;;;;;8.75;4.75;;;;;18.60;64.52;101597.13;5057444;28;45635;-88
2021/09/24 06:38:49;;;;;;;;;4.00;4.00;;;;;18.64;64.67;101606.81;5055594;28;46235;-81
2021/09/24 06:41:15;;;;;;;;;5.75;4.25;;;;;18.61;64.42;101601.53;5049451;28;45432;-79
2021/09/24 06:43:42;;;;;;;;;6.75;6.00;;;;;18.66;64.45;101608.66;5053759;28;45725;-85
2021/09/24 06:46:08;;;;;;;;;12.25;11.00;;;;;18.50;64.39;101577.63;5056757;28;46072;-79
2021/09/24 06:48:34;;;;;;;;;7.75;6.75;;;;;18.51;64.08;101579.41;5058177;28;45660;-78
2021/09/24 06:51:01;;;;;;;;;7.00;5.50;;;;;18.68;64.23;101606.94;5054393;28;45920;-78
2021/09/24 06:53:28;;;;;;;;;6.25;5.25;;;;;18.63;64.22;101602.41;5054722;28;45470;-80
2021/09/24 06:55:56;;;;;;;;;4.75;4.75;;;;;18.66;64.86;101607.75;5055434;28;45439;-80
2021/09/24 06:58:22;;;;;;;;;5.50;5.50;;;;;18.63;64.42;101597.16;5055709;28;46164;-79
2021/09/24 07:00:48;;;;;;;;;6.50;5.25;;;;;18.69;64.68;101608.69;5055402;28;45259;-77
2021/09/24 07:03:13;;;;;;;;;4.50;4.50;;;;;18.70;64.51;101605.22;5055076;28;45253;-77
2021/09/24 07:05:39;;;;;;;;;6.50;6.25;;;;;18.69;64.24;101589.47;5055898;28;45559;-76
2021/09/24 07:08:04;;;;;;;;;10.50;7.50;;;;;18.80;64.39;101605.44;5056851;28;45583;-78
2021/09/24 07:10:30;;;;;;;;;10.50;7.25;;;;;18.83;64.31;101602.91;5057674;28;45434;-82
2021/09/24 07:12:56;;;;;;;;;10.75;7.00;;;;;18.83;63.70;101605.53;5056263;28;45282;-82
2021/09/24 07:15:21;;;;;;;;;12.00;9.25;;;;;18.80;64.30;101605.44;5057656;28;46972;-77
2021/09/24 07:17:47;;;;;;;;;7.00;7.00;;;;;18.79;64.27;101607.19;5058583;28;45489;-79
2021/09/24 07:20:12;;;;;;;;;10.75;9.75;;;;;18.70;64.05;101599.13;5069671;28;45892;-81
2021/09/24 07:22:38;;;;;;;;;8.75;7.25;;;;;18.69;64.34;101606.09;5059355;28;45413;-80
2021/09/24 07:25:05;;;;;;;;;8.25;6.00;;;;;18.64;64.57;101601.56;5065892;28;45548;-76
2021/09/24 07:27:31;;;;;;;;;12.75;8.25;;;;;18.62;64.52;101595.44;5082555;27;45518;-76
2021/09/24 07:29:57;;;;;;;;;9.00;7.50;;;;;18.58;64.53;101594.44;5072021;27;45339;-80
2021/09/24 07:32:23;;;;;;;;;7.25;6.00;;;;;18.64;64.25;101610.34;5059180;28;45294;-82
2021/09/24 07:34:48;;;;;;;;;7.50;7.50;;;;;18.49;64.44;101576.78;5059690;28;45242;-83
2021/09/24 07:37:14;;;;;;;;;6.50;6.50;;;;;18.61;63.97;101604.16;5058973;28;45165;-80
2021/09/24 07:39:40;;;;;;;;;9.00;7.50;;;;;18.59;63.87;101596.22;5058926;28;45262;-80
2021/09/24 07:42:07;;;;;;;;;12.00;7.00;;;;;18.66;63.90;101597.25;5060542;28;45860;-81
2021/09/24 07:44:33;;;;;;;;;6.50;6.25;;;;;18.71;63.94;101599.13;5060757;28;45406;-81
2021/09/24 07:46:59;;;;;;;;;8.00;7.00;;;;;18.80;63.27;101592.34;5059036;28;46307;-83
2021/09/24 07:49:25;;;;;;;;;12.50;9.00;;;;;18.83;63.30;101584.53;5056988;28;45925;-81
2021/09/24 07:51:53;;;;;;;;;8.75;8.00;;;;;18.96;62.76;101589.25;5059542;28;45346;-79
2021/09/24 07:54:21;;;;;;;;;10.50;10.50;;;;;18.99;63.11;101581.47;5058051;28;45320;-80
2021/09/24 07:56:51;;;;;;;;;12.75;8.75;;;;;19.01;62.87;101584.13;5058765;28;45699;-80
2021/09/24 07:59:17;;;;;;;;;11.75;10.75;;;;;19.00;62.96;101591.13;5058440;28;45323;-82
2021/09/24 08:01:43;;;;;;;;;13.75;10.75;;;;;18.99;62.62;101594.59;5058915;28;45474;-78
2021/09/24 08:04:09;;;;;;;;;11.50;9.50;;;;;18.97;62.68;101593.66;5058670;27;45271;-79
2021/09/24 08:06:35;;;;;;;;;10.25;7.75;;;;;18.90;62.83;101599.56;5059355;28;46060;-77
2021/09/24 08:09:00;;;;;;;;;7.25;7.25;;;;;18.87;62.69;101597.75;5060662;28;45309;-79
2021/09/24 08:11:26;;;;;;;;;12.50;9.75;;;;;18.88;62.78;101607.41;5064092;28;45234;-78
2021/09/24 08:13:52;;;;;;;;;10.75;9.00;;;;;18.81;62.73;101596.72;5061241;28;45587;-78
2021/09/24 08:16:18;;;;;;;;;13.00;10.25;;;;;18.88;62.72;101615.28;5060538;28;45393;-76
2021/09/24 08:18:43;;;;;;;;;9.25;8.25;;;;;18.92;62.76;101624.09;5069158;28;45322;-76
2021/09/24 08:21:09;;;;;;;;;9.50;9.50;;;;;19.00;62.32;101613.81;5078479;27;45424;-75
2021/09/24 08:23:35;;;;;;;;;12.50;7.75;;;;;19.09;62.17;101606.16;5077587;27;45457;-79
2021/09/24 08:26:01;;;;;;;;;10.00;5.25;;;;;19.22;62.24;101614.31;5056367;28;46158;-75
2021/09/24 08:28:26;;;;;;;;;9.50;8.50;;;;;19.28;61.88;101617.97;5058325;28;45405;-76
2021/09/24 08:30:52;;;;;;;;;10.75;8.50;;;;;19.30;61.42;101605.75;5057693;28;45356;-76
2021/09/24 08:33:18;;;;;;;;;10.00;7.75;;;;;19.38;61.83;101607.66;5058083;28;45477;-76
2021/09/24 08:35:44;;;;;;;;;9.50;8.00;;;;;19.46;61.59;101613.94;5061074;28;45367;-76
2021/09/24 08:38:11;;;;;;;;;11.00;8.00;;;;;19.55;60.66;101618.50;5075541;27;45279;-77
2021/09/24 08:40:37;;;;;;;;;11.25;9.50;;;;;19.61;60.99;101608.13;5058154;28;45268;-77
2021/09/24 08:43:04;;;;;;;;;9.25;7.25;;;;;19.75;60.79;101613.66;5056346;28;46040;-80
2021/09/24 08:45:31;;;;;;;;;10.00;8.00;;;;;19.77;59.78;101610.22;5057737;28;45545;-76
2021/09/24 08:48:03;;;;;;;;;13.75;10.75;;;;;19.77;59.50;101610.22;5064608;28;45473;-82
2021/09/24 08:50:31;;;;;;;;;11.25;9.00;;;;;19.80;59.49;101615.53;5078365;27;45417;-77
2021/09/24 08:52:57;;;;;;;;;10.00;7.25;;;;;19.76;59.72;101608.44;5063767;27;45307;-82
2021/09/24 08:55:24;;;;;;;;;8.50;7.50;;;;;19.74;59.34;101604.88;5058372;28;45363;-83
2021/09/24 08:57:50;;;;;;;;;12.75;8.00;;;;;19.88;59.71;101622.69;5057308;28;45701;-78
2021/09/24 09:00:17;;;;;;;;;9.00;8.00;;;;;20.01;58.99;101629.97;5057483;28;45370;-80
2021/09/24 09:03:08;;;;;;;;;9.75;7.00;;;;;20.13;58.70;101617.91;5063074;28;45429;-81
2021/09/24 09:05:43;;;;;;;;;10.75;9.50;;;;;20.15;58.13;101614.44;5038412;28;46060;-91
2021/09/24 09:08:11;;;;;;;;;9.00;6.00;;;;;20.20;57.51;101620.66;5045683;28;45339;-81
2021/09/24 09:10:39;;;;;;;;;7.00;7.00;;;;;20.16;57.51;101620.56;5049435;28;45327;-86
2021/09/24 09:13:10;;;;;;;;;10.50;7.25;;;;;20.27;58.25;101619.03;5050805;28;45497;-84
2021/09/24 09:15:36;;;;;;;;;9.75;6.50;;;;;20.31;57.51;101619.97;5053349;28;45557;-84
2021/09/24 09:18:03;;;;;;;;;9.25;7.50;;;;;20.24;57.86;101597.97;5058759;28;45281;-86
2021/09/24 09:20:30;;;;;;;;;9.00;6.25;;;;;20.42;57.33;101619.31;5058003;28;45302;-82
2021/09/24 09:22:58;;;;;;;;;6.25;6.25;;;;;20.50;57.18;101626.44;5057877;28;45687;-88
2021/09/24 09:25:35;;;;;;;;;14.00;10.50;;;;;20.55;57.00;101630.03;5057550;28;46434;-81
2021/09/24 09:28:04;;;;;;;;;8.00;7.00;;;;;20.55;56.89;101628.28;5058152;28;45691;-81
2021/09/24 09:30:32;;;;;;;;;15.00;8.00;;;;;20.54;56.31;101623.88;5055846;28;45381;-83
2021/09/24 09:33:14;;;;;;;;;8.75;8.50;;;;;20.52;56.68;101612.44;5057608;28;45327;-84
2021/09/24 09:35:44;;;;;;;;;7.00;7.00;;;;;20.63;56.50;101616.97;5061886;28;45771;-83
2021/09/24 09:38:40;;;;;;;;;8.25;8.00;;;;;20.67;56.67;101614.47;5064368;28;45260;-78
2021/09/24 09:41:10;;;;;;;;;7.50;7.00;;;;;20.69;56.41;101622.38;5060737;28;45447;-79
2021/09/24 09:43:39;;;;;;;;;8.00;8.00;;;;;20.68;55.86;101620.59;5059319;28;45425;-80
2021/09/24 09:46:08;;;;;;;;;11.75;9.25;;;;;20.67;55.86;101617.09;5057500;28;46333;-87
2021/09/24 09:48:34;;;;;;;;;9.00;8.75;;;;;20.68;55.76;101615.31;5057160;28;45889;-85
2021/09/24 09:51:01;;;;;;;;;11.50;8.25;;;;;20.67;56.16;101609.19;5057501;28;45425;-81
2021/09/24 09:53:27;;;;;;;;;9.00;8.00;;;;;20.78;55.97;101613.78;5058390;28;45429;-82
2021/09/24 09:55:59;;;;;;;;;6.50;6.25;;;;;20.83;55.79;101619.97;5057576;28;45936;-81
2021/09/24 09:58:31;;;;;;;;;7.25;7.25;;;;;20.85;55.63;101613.88;5057889;28;45401;-84
2021/09/24 10:01:08;;;;;;;;;7.00;7.00;;;;;20.96;55.56;101619.31;5057161;28;45455;-82
2021/09/24 10:03:54;;;;;;;;;11.00;9.75;;;;;21.02;55.40;101614.13;5048900;28;45724;-81
2021/09/24 10:06:25;;;;;;;;;9.25;7.75;;;;;21.08;55.08;101610.69;5056617;28;45441;-80
2021/09/24 10:08:54;;;;;;;;;8.50;7.50;;;;;21.15;55.07;101604.66;5056100;28;45255;-80
2021/09/24 10:11:27;;;;;;;;;9.00;7.75;;;;;21.11;55.18;101584.41;5056188;28;45877;-78
2021/09/24 10:13:55;;;;;;;;;9.25;9.00;;;;;21.21;54.27;101601.22;5055172;28;45450;-78
2021/09/24 10:16:24;;;;;;;;;10.50;8.50;;;;;21.16;54.65;101602.91;5056387;28;46456;-79
2021/09/24 10:18:50;;;;;;;;;9.00;8.00;;;;;21.12;54.78;101604.59;5057128;28;45436;-79
2021/09/24 10:21:16;;;;;;;;;10.25;10.25;;;;;21.08;54.75;101604.53;5062549;28;45217;-78
2021/09/24 10:23:46;;;;;;;;;10.75;9.00;;;;;21.00;54.93;101602.66;5062298;28;45293;-79
2021/09/24 10:26:19;;;;;;;;;9.00;7.00;;;;;21.01;54.69;101609.72;5055923;28;45413;-78
2021/09/24 10:28:45;;;;;;;;;12.75;12.00;;;;;20.99;54.94;101592.13;5049806;28;45818;-78
2021/09/24 10:31:18;;;;;;;;;13.25;9.25;;;;;21.17;54.69;101612.56;5056384;28;45475;-78
2021/09/24 10:33:49;;;;;;;;;11.75;8.75;;;;;21.27;54.00;101595.16;5056697;28;45503;-78
2021/09/24 10:36:38;;;;;;;;;7.00;6.00;;;;;21.33;54.09;101598.72;5055697;28;46159;-78
2021/09/24 10:39:25;;;;;;;;;9.75;8.00;;;;;21.36;53.85;101592.63;5056006;28;45401;-78
2021/09/24 10:42:28;;;;;;;;;11.00;9.50;;;;;21.42;53.52;101597.97;5055047;28;45379;-78
2021/09/24 10:45:13;;;;;;;;;12.25;8.00;;;;;21.45;53.71;101589.22;5055756;28;45536;-77
2021/09/24 10:48:01;;;;;;;;;10.00;8.00;;;;;21.53;53.87;101600.75;5056114;28;45978;-78
2021/09/24 10:50:37;;;;;;;;;10.25;8.75;;;;;21.59;52.96;101595.56;5056231;28;45815;-77
2021/09/24 10:53:13;;;;;;;;;12.25;10.00;;;;;21.54;52.98;101594.63;5054966;28;46320;-78
2021/09/24 10:55:46;;;;;;;;;8.50;8.50;;;;;21.48;52.17;101592.78;5054743;28;45537;-78
2021/09/24 10:58:16;;;;;;;;;10.00;9.00;;;;;21.27;53.20;101572.31;5055755;28;45398;-77
2021/09/24 11:00:47;;;;;;;;;7.75;6.00;;;;;21.27;52.92;101577.59;5055016;28;45332;-78
2021/09/24 11:03:15;;;;;;;;;9.00;7.00;;;;;21.22;53.12;101589.78;5055108;28;46690;-80
2021/09/24 11:05:57;;;;;;;;;9.25;8.75;;;;;21.15;53.13;101577.44;5060131;28;45526;-79
2021/09/24 11:08:37;;;;;;;;;8.50;7.75;;;;;21.12;52.89;101583.53;5063650;28;46209;-77
2021/09/24 11:11:09;;;;;;;;;9.25;7.00;;;;;21.10;53.31;101585.25;5055059;28;45888;-84
2021/09/24 11:13:38;;;;;;;;;9.50;8.00;;;;;20.94;53.38;101554.34;5055366;28;45334;-76
2021/09/24 11:16:06;;;;;;;;;9.25;9.00;;;;;20.98;53.17;101559.66;5055425;28;45402;-76
2021/09/24 11:18:53;;;;;;;;;9.00;8.50;;;;;20.96;53.63;101566.66;5053524;28;46194;-74
2021/09/24 11:21:22;;;;;;;;;9.50;8.00;;;;;20.94;53.38;101562.25;5051728;28;45802;-77
2021/09/24 11:23:50;;;;;;;;;7.75;6.75;;;;;20.92;53.43;101558.69;5053196;28;45556;-76